Stony Brook, New York
Current Conditions -  °F | °C
As of 11:56 PM on Sunday 19 Oct 2014 (Local Time) from KISP Reporting Station
Scattered Clouds Scattered Clouds  
Wind Chill: 38°   Ceiling: Unl
Heat Index: 43°   Visibility: 10mi
Dew Point: 29°   Wind: 8mph
Humidity: 58%   Direction: 330°NNW
Pressure: 30.03"   Gusts: NA
Location:  40.92°N, 73.13°W
Report Text: KISP 200356Z 33007KT 10SM SCT230 06/M02 A3003 RMK AO2 SLP171 T00611017
Loading
Personal Weather Stations






























Interactive Weather Map New forecast layout! Learn more

10-Day Weather Forecast

Advertisements
Track Severe Weather on mobile